Time;durP1;ratioP1;P1;durP2;ratioP2;P2;SDS_P1;SDS_P2;PMS_P1;PMS_P2;Temp;Humidity;BMP_temperature;BMP_pressure;BME280_temperature;BME280_humidity;BME280_pressure;Samples;Min_cycle;Max_cycle;Signal;HPM_P1;HPM_P2
2021/06/04 00:00:41;;;;;;;37.10;32.33;;;18.40;99.90;;;;;;4164162;28;20037;-77
2021/06/04 00:02:42;;;;;;;36.88;31.42;;;18.40;99.90;;;;;;4164101;28;20033;-77
2021/06/04 00:04:43;;;;;;;36.30;31.30;;;18.40;99.90;;;;;;4164800;28;20036;-77
2021/06/04 00:06:44;;;;;;;38.40;31.75;;;18.50;99.90;;;;;;4165573;28;20088;-75
2021/06/04 00:08:46;;;;;;;35.33;29.73;;;18.50;99.90;;;;;;4165103;28;20496;-76
2021/06/04 00:11:09;;;;;;;39.58;30.42;;;18.50;99.90;;;;;;4165032;28;20029;-76
2021/06/04 00:13:18;;;;;;;34.17;30.38;;;18.40;99.90;;;;;;4162604;28;20041;-77
2021/06/04 00:15:25;;;;;;;40.60;31.90;;;18.40;99.90;;;;;;4163785;28;20041;-77
2021/06/04 00:17:26;;;;;;;35.25;28.27;;;18.30;99.90;;;;;;4163679;28;20030;-77
2021/06/04 00:19:30;;;;;;;37.95;30.10;;;18.30;99.90;;;;;;4163760;28;20534;-77
2021/06/04 00:21:35;;;;;;;34.22;27.75;;;18.40;99.90;;;;;;4165218;28;20445;-77
2021/06/04 00:23:37;;;;;;;34.60;28.33;;;18.30;99.90;;;;;;4163417;28;20040;-77
2021/06/04 00:25:38;;;;;;;36.50;29.65;;;18.30;99.90;;;;;;4163416;28;20033;-77
2021/06/04 00:27:39;;;;;;;31.95;26.60;;;18.30;99.90;;;;;;4163147;28;20477;-76
2021/06/04 00:29:42;;;;;;;34.28;27.88;;;18.20;99.90;;;;;;4164923;28;20060;-77
2021/06/04 00:31:45;;;;;;;31.67;25.88;;;18.20;99.90;;;;;;4164531;28;20033;-77
2021/06/04 00:33:45;;;;;;;;;;;18.20;99.90;;;;;;4163903;28;20049;-76
2021/06/04 00:35:47;;;;;;;32.75;26.02;;;18.20;99.90;;;;;;4163231;28;19936;-77
2021/06/04 00:37:47;;;;;;;35.97;26.80;;;18.20;99.90;;;;;;4161838;28;20030;-77
2021/06/04 00:39:49;;;;;;;32.13;24.98;;;18.20;99.90;;;;;;4156010;28;20050;-77
2021/06/04 00:41:57;;;;;;;30.00;24.58;;;18.10;99.90;;;;;;4160683;28;20530;-77
2021/06/04 00:43:59;;;;;;;29.40;24.67;;;18.20;99.90;;;;;;4163535;28;20121;-77
2021/06/04 00:46:01;;;;;;;28.48;23.92;;;18.10;99.90;;;;;;4152931;28;20021;-78
2021/06/04 00:48:02;;;;;;;26.58;23.77;;;18.10;99.90;;;;;;4162719;28;20137;-78
2021/06/04 00:50:09;;;;;;;31.67;24.90;;;18.10;99.90;;;;;;4162376;28;20030;-78
2021/06/04 00:52:12;;;;;;;28.75;23.80;;;18.10;99.90;;;;;;4151246;28;20026;-77
2021/06/04 00:54:14;;;;;;;28.08;23.85;;;18.00;99.90;;;;;;4161948;28;20515;-77
2021/06/04 00:56:15;;;;;;;30.75;24.17;;;18.00;99.90;;;;;;4147970;28;20037;-77
2021/06/04 00:58:22;;;;;;;26.08;22.65;;;17.90;99.90;;;;;;4170435;28;20017;-78
2021/06/04 01:00:31;;;;;;;30.45;23.33;;;17.90;99.90;;;;;;4154383;28;20042;-77
2021/06/04 01:02:32;;;;;;;34.65;24.98;;;18.00;99.90;;;;;;4162251;28;20033;-78
2021/06/04 01:04:33;;;;;;;29.23;23.77;;;18.00;99.90;;;;;;4148901;28;20028;-77
2021/06/04 01:06:47;;;;;;;25.25;22.60;;;17.90;99.90;;;;;;4152564;28;20025;-77
2021/06/04 01:09:01;;;;;;;27.73;23.17;;;17.70;99.90;;;;;;4155034;28;20022;-77
2021/06/04 01:11:21;;;;;;;30.85;24.88;;;17.70;99.90;;;;;;4160500;28;20037;-77
2021/06/04 01:13:31;;;;;;;28.08;24.73;;;17.60;99.90;;;;;;4162607;28;20022;-77
2021/06/04 01:15:50;;;;;;;27.02;24.08;;;17.50;99.90;;;;;;4162090;28;20026;-78
2021/06/04 01:18:18;;;;;;;28.33;22.63;;;17.50;99.90;;;;;;4150211;28;20030;-78
2021/06/04 01:20:28;;;;;;;27.95;24.33;;;17.40;99.90;;;;;;4149064;28;20036;-78
2021/06/04 01:23:10;;;;;;;32.65;25.70;;;17.30;99.90;;;;;;4162433;28;20049;-77
2021/06/04 01:25:34;;;;;;;30.80;26.38;;;17.30;99.90;;;;;;4142744;28;20038;-77
2021/06/04 01:27:36;;;;;;;33.80;26.40;;;;;;;;;;4143305;28;20113;-77
2021/06/04 01:29:43;;;;;;;33.92;28.67;;;17.20;99.90;;;;;;4163735;28;20112;-77
2021/06/04 01:31:55;;;;;;;33.28;27.88;;;17.20;99.90;;;;;;4164129;28;20087;-78
2021/06/04 01:34:25;;;;;;;32.65;26.42;;;17.10;99.90;;;;;;4164275;28;20033;-77
2021/06/04 01:36:30;;;;;;;34.20;27.85;;;17.10;99.90;;;;;;4155307;28;20038;-78
2021/06/04 01:38:36;;;;;;;34.75;26.23;;;17.00;99.90;;;;;;4178839;28;20028;-78
2021/06/04 01:40:40;;;;;;;29.85;26.58;;;17.00;99.90;;;;;;4178866;28;20056;-78
2021/06/04 01:42:44;;;;;;;28.63;24.55;;;17.00;99.90;;;;;;4163713;28;20029;-77
2021/06/04 01:45:05;;;;;;;34.08;28.30;;;16.90;99.90;;;;;;4163403;28;20114;-77
2021/06/04 01:47:10;;;;;;;31.33;25.52;;;16.90;99.90;;;;;;4178264;28;20025;-77
2021/06/04 01:49:38;;;;;;;32.20;26.45;;;16.80;99.90;;;;;;4163713;28;20026;-77
2021/06/04 01:51:43;;;;;;;32.78;29.13;;;16.70;99.90;;;;;;4159814;28;20362;-78
2021/06/04 01:53:49;;;;;;;33.97;28.48;;;16.60;99.90;;;;;;4163803;28;20083;-78
2021/06/04 01:55:56;;;;;;;35.30;31.50;;;16.60;99.90;;;;;;4162007;28;20111;-78
2021/06/04 01:58:04;;;;;;;33.63;28.38;;;16.50;99.90;;;;;;4161977;28;20104;-77
2021/06/04 02:00:13;;;;;;;36.45;29.90;;;16.30;99.90;;;;;;4161739;28;20587;-78
2021/06/04 02:02:15;;;;;;;37.95;31.60;;;16.30;99.90;;;;;;4161887;28;20033;-78
2021/06/04 02:04:25;;;;;;;40.38;31.83;;;16.20;99.90;;;;;;4161816;28;20025;-78
2021/06/04 02:06:28;;;;;;;44.45;31.65;;;16.20;99.90;;;;;;4162603;28;20196;-77
2021/06/04 02:08:36;;;;;;;40.38;31.02;;;16.10;99.90;;;;;;4163123;28;20556;-77
2021/06/04 02:10:42;;;;;;;40.67;31.38;;;16.10;99.90;;;;;;4163015;28;20053;-77
2021/06/04 02:12:43;;;;;;;40.17;31.70;;;16.00;99.90;;;;;;4161980;28;20030;-78
2021/06/04 02:14:51;;;;;;;39.58;31.92;;;15.90;99.90;;;;;;4161666;28;20033;-78
2021/06/04 02:17:16;;;;;;;33.53;29.48;;;16.10;99.90;;;;;;4161960;28;20464;-77
2021/06/04 02:19:53;;;;;;;37.13;28.27;;;16.20;99.90;;;;;;4161760;28;20037;-77
2021/06/04 02:22:26;;;;;;;42.08;31.85;;;16.10;99.90;;;;;;4162130;28;20037;-78
2021/06/04 02:24:42;;;;;;;32.45;25.98;;;16.00;99.90;;;;;;4161139;28;20021;-77
2021/06/04 02:26:51;;;;;;;36.10;30.95;;;15.80;99.90;;;;;;4162034;28;20370;-77
2021/06/04 02:29:06;;;;;;;40.78;32.55;;;15.80;99.90;;;;;;4177151;28;20079;-77
2021/06/04 02:31:17;;;;;;;37.28;29.58;;;15.80;99.90;;;;;;4160065;28;20111;-77
2021/06/04 02:33:24;;;;;;;37.13;30.52;;;15.70;99.90;;;;;;4161691;28;20029;-77
2021/06/04 02:35:37;;;;;;;44.25;35.67;;;15.70;99.90;;;;;;4160298;28;20028;-77
2021/06/04 02:37:42;;;;;;;45.08;35.08;;;15.70;99.90;;;;;;4160893;28;20053;-77
2021/06/04 02:39:50;;;;;;;38.22;32.17;;;15.70;99.90;;;;;;4159241;28;20026;-78
2021/06/04 02:41:58;;;;;;;36.80;31.40;;;15.70;99.90;;;;;;4159898;28;20029;-78
2021/06/04 02:44:10;;;;;;;41.97;34.47;;;15.60;99.90;;;;;;4162892;28;20095;-77
2021/06/04 02:46:19;;;;;;;44.17;34.47;;;15.60;99.90;;;;;;4173696;28;20429;-78
2021/06/04 02:48:23;;;;;;;42.97;31.88;;;15.50;99.90;;;;;;4172631;28;20053;-77
2021/06/04 02:50:30;;;;;;;48.08;36.30;;;15.40;99.90;;;;;;4157706;28;20026;-77
2021/06/04 02:52:33;;;;;;;52.88;37.72;;;15.40;99.90;;;;;;4160782;28;20033;-78
2021/06/04 02:54:36;;;;;;;;;;;15.40;99.90;;;;;;4159790;28;20095;-78
2021/06/04 02:56:46;;;;;;;42.53;34.15;;;15.30;99.90;;;;;;4157495;28;20363;-78
2021/06/04 02:58:57;;;;;;;49.88;37.03;;;15.20;99.90;;;;;;4158803;28;20042;-77
2021/06/04 03:00:59;;;;;;;43.72;35.13;;;15.20;99.90;;;;;;4152019;28;20057;-75
2021/06/04 03:03:00;;;;;;;49.22;35.85;;;15.10;99.90;;;;;;4159342;28;20025;-77
2021/06/04 03:05:08;;;;;;;44.25;34.88;;;15.10;99.90;;;;;;4162619;28;20035;-77
2021/06/04 03:07:20;;;;;;;54.40;39.78;;;15.10;99.90;;;;;;4160838;28;20025;-77
2021/06/04 03:09:26;;;;;;;51.55;37.67;;;15.10;99.90;;;;;;4167801;28;20112;-78
2021/06/04 03:11:31;;;;;;;55.60;38.70;;;15.00;99.90;;;;;;4162315;28;20420;-77
2021/06/04 03:13:33;;;;;;;46.92;37.10;;;15.00;99.90;;;;;;4161308;28;20521;-78
2021/06/04 03:15:47;;;;;;;52.55;38.05;;;14.90;99.90;;;;;;4159407;28;20021;-78
2021/06/04 03:17:48;;;;;;;44.67;35.83;;;14.90;99.90;;;;;;4149741;28;20038;-77
2021/06/04 03:19:49;;;;;;;48.45;37.85;;;14.80;99.90;;;;;;4164521;28;20034;-78
2021/06/04 03:22:01;;;;;;;56.47;39.33;;;14.80;99.90;;;;;;4166191;28;20398;-77
2021/06/04 03:24:06;;;;;;;57.35;39.88;;;14.70;99.90;;;;;;4165924;28;20029;-75
2021/06/04 03:26:19;;;;;;;51.05;35.22;;;14.70;99.90;;;;;;4163849;28;20040;-78
2021/06/04 03:28:23;;;;;;;57.47;38.25;;;14.70;99.90;;;;;;4179712;28;20037;-78
2021/06/04 03:30:30;;;;;;;58.20;40.85;;;14.70;99.90;;;;;;4164170;28;20033;-77
2021/06/04 03:32:30;;;;;;;56.55;40.80;;;14.70;99.90;;;;;;4165327;28;20026;-78
2021/06/04 03:34:31;;;;;;;52.90;37.55;;;14.60;99.90;;;;;;4164483;28;20025;-77
2021/06/04 03:36:35;;;;;;;52.42;36.40;;;14.80;99.90;;;;;;4164642;28;20029;-77
2021/06/04 03:38:36;;;;;;;58.92;41.97;;;14.60;99.90;;;;;;4179238;28;20021;-77
2021/06/04 03:40:37;;;;;;;58.60;41.08;;;14.60;99.90;;;;;;4179578;28;20057;-77
2021/06/04 03:42:38;;;;;;;49.78;37.13;;;14.50;99.90;;;;;;4164412;28;20025;-78
2021/06/04 03:44:42;;;;;;;56.55;38.90;;;14.50;99.90;;;;;;4164856;28;20029;-78
2021/06/04 03:46:43;;;;;;;52.92;37.20;;;14.50;99.90;;;;;;4163544;28;20469;-77
2021/06/04 03:48:44;;;;;;;53.80;39.20;;;14.60;99.90;;;;;;4164820;28;20037;-77
2021/06/04 03:50:48;;;;;;;60.22;41.35;;;14.60;99.90;;;;;;4165699;28;20030;-77
2021/06/04 03:52:49;;;;;;;57.53;39.38;;;14.60;99.90;;;;;;4180620;28;20033;-78
2021/06/04 03:54:54;;;;;;;56.58;39.70;;;14.60;99.90;;;;;;4164501;28;20026;-78
2021/06/04 03:56:56;;;;;;;54.67;39.47;;;14.70;99.90;;;;;;4165130;28;20060;-77
2021/06/04 03:58:58;;;;;;;54.35;38.90;;;14.70;99.90;;;;;;4164703;28;20051;-78
2021/06/04 04:01:04;;;;;;;52.85;37.03;;;14.70;99.90;;;;;;4165193;28;20583;-78
2021/06/04 04:03:06;;;;;;;56.40;40.40;;;14.70;99.90;;;;;;4179953;28;20071;-78
2021/06/04 04:05:08;;;;;;;53.00;38.78;;;14.80;99.90;;;;;;4165111;28;20048;-78
2021/06/04 04:07:09;;;;;;;53.92;37.80;;;14.80;99.90;;;;;;4165212;28;20373;-77
2021/06/04 04:09:11;;;;;;;56.60;39.42;;;14.80;99.90;;;;;;4180435;28;20088;-78
2021/06/04 04:11:12;;;;;;;58.78;41.63;;;14.80;99.90;;;;;;4163814;28;20026;-78
2021/06/04 04:13:16;;;;;;;57.40;39.70;;;14.80;99.90;;;;;;4164796;28;20511;-78
2021/06/04 04:15:17;;;;;;;49.95;37.72;;;14.90;99.90;;;;;;4165250;28;20022;-77
2021/06/04 04:17:19;;;;;;;53.60;36.67;;;15.00;99.90;;;;;;4164733;28;20036;-78
2021/06/04 04:19:22;;;;;;;52.22;36.10;;;15.00;99.90;;;;;;4165552;28;20117;-77
2021/06/04 04:21:23;;;;;;;;;;;15.10;99.90;;;;;;4151464;28;20540;-77
2021/06/04 04:23:31;;;;;;;47.25;34.42;;;15.10;99.90;;;;;;4164751;28;19909;-78
2021/06/04 04:25:35;;;;;;;45.63;32.15;;;15.20;99.90;;;;;;4179849;28;20025;-77
2021/06/04 04:27:36;;;;;;;45.17;34.40;;;15.20;99.90;;;;;;4163429;28;20508;-78
2021/06/04 04:29:37;;;;;;;39.40;31.25;;;15.30;99.90;;;;;;4162880;28;20080;-78
2021/06/04 04:31:43;;;;;;;40.47;31.85;;;15.30;99.90;;;;;;4164753;28;20036;-77
2021/06/04 04:33:44;;;;;;;38.95;32.42;;;15.40;99.90;;;;;;4163054;28;20038;-77
2021/06/04 04:35:45;;;;;;;39.95;30.55;;;15.50;99.90;;;;;;4163449;28;20070;-75
2021/06/04 04:37:46;;;;;;;40.72;30.45;;;15.60;99.90;;;;;;4163534;28;20041;-77
2021/06/04 04:39:49;;;;;;;37.10;29.95;;;15.70;99.90;;;;;;4163345;28;20045;-78
2021/06/04 04:41:50;;;;;;;36.70;28.92;;;15.80;99.90;;;;;;4154120;28;20042;-78
2021/06/04 04:43:53;;;;;;;39.53;27.90;;;15.80;99.90;;;;;;4164617;28;20028;-78
2021/06/04 04:45:54;;;;;;;37.55;28.98;;;15.90;99.90;;;;;;4162122;28;20037;-77
2021/06/04 04:47:55;;;;;;;39.25;27.42;;;16.00;99.90;;;;;;4156312;28;20057;-77
2021/06/04 04:49:56;;;;;;;34.85;27.73;;;16.00;99.90;;;;;;4157143;28;20042;-77
2021/06/04 04:51:57;;;;;;;34.13;26.58;;;16.10;99.90;;;;;;4176630;28;20523;-77
2021/06/04 04:53:58;;;;;;;34.67;27.92;;;16.20;99.90;;;;;;4162752;28;20536;-78
2021/06/04 04:55:59;;;;;;;34.03;27.33;;;16.20;99.90;;;;;;4162178;28;20061;-78
2021/06/04 04:58:00;;;;;;;34.50;27.05;;;16.20;99.90;;;;;;4158913;28;20112;-77
2021/06/04 05:00:02;;;;;;;32.58;27.23;;;16.30;99.90;;;;;;4157311;28;20454;-78
2021/06/04 05:02:03;;;;;;;33.83;26.27;;;16.40;99.90;;;;;;4160576;28;20481;-77
2021/06/04 05:04:05;;;;;;;32.75;24.45;;;16.50;99.90;;;;;;4160782;28;20030;-78
2021/06/04 05:06:07;;;;;;;31.88;26.85;;;16.50;99.90;;;;;;4162289;28;20564;-78
2021/06/04 05:08:08;;;;;;;36.22;25.63;;;16.60;99.90;;;;;;4163789;28;20021;-77
2021/06/04 05:10:09;;;;;;;39.15;28.10;;;16.60;99.90;;;;;;4163212;28;20587;-78
2021/06/04 05:12:11;;;;;;;38.15;27.88;;;16.70;99.90;;;;;;4163117;28;20033;-78
2021/06/04 05:14:12;;;;;;;37.92;27.05;;;16.80;99.90;;;;;;4162740;28;20030;-78
2021/06/04 05:16:12;;;;;;;34.83;27.38;;;17.00;99.90;;;;;;4157740;28;20030;-77
2021/06/04 05:18:14;;;;;;;36.65;26.42;;;17.00;99.90;;;;;;4160574;28;20036;-78
2021/06/04 05:20:17;;;;;;;38.03;28.38;;;17.10;99.90;;;;;;4161447;28;20040;-77
2021/06/04 05:22:18;;;;;;;37.75;29.63;;;17.10;99.90;;;;;;4161021;28;20461;-78
2021/06/04 05:24:19;;;;;;;38.22;28.25;;;17.20;99.90;;;;;;4161201;28;20022;-78
2021/06/04 05:26:20;;;;;;;38.08;28.55;;;17.30;99.90;;;;;;4161469;28;20060;-78
2021/06/04 05:28:24;;;;;;;42.40;29.23;;;17.40;99.90;;;;;;4162825;28;20722;-78
2021/06/04 05:30:29;;;;;;;39.10;29.30;;;17.50;99.90;;;;;;4157642;28;20041;-78
2021/06/04 05:32:29;;;;;;;38.50;28.65;;;17.60;99.90;;;;;;4163200;28;20025;-78
2021/06/04 05:34:30;;;;;;;37.47;29.75;;;17.70;99.90;;;;;;4157824;28;20036;-78
2021/06/04 05:36:33;;;;;;;37.60;28.42;;;17.70;99.90;;;;;;4160462;28;20112;-78
2021/06/04 05:38:34;;;;;;;;;;;17.80;99.90;;;;;;4178222;28;20625;-78
2021/06/04 05:40:38;;;;;;;37.33;25.98;;;17.70;99.90;;;;;;4158955;28;19909;-78
2021/06/04 05:42:39;;;;;;;38.97;29.38;;;17.70;99.90;;;;;;4159912;28;20097;-78
2021/06/04 05:44:41;;;;;;;29.42;25.50;;;17.80;99.90;;;;;;4157546;28;20474;-78
2021/06/04 05:46:43;;;;;;;35.03;27.90;;;17.90;99.90;;;;;;4149702;28;20414;-78
2021/06/04 05:48:44;;;;;;;35.13;27.52;;;18.10;99.90;;;;;;4159692;28;20025;-77
2021/06/04 05:50:48;;;;;;;37.63;28.83;;;18.20;99.90;;;;;;4160313;28;20037;-77
2021/06/04 05:52:49;;;;;;;35.13;28.13;;;18.30;99.90;;;;;;4160418;28;20029;-77
2021/06/04 05:54:50;;;;;;;38.67;28.73;;;18.50;99.90;;;;;;4161381;28;20035;-76
2021/06/04 05:56:51;;;;;;;39.97;29.77;;;18.50;99.90;;;;;;4161415;28;20044;-77
2021/06/04 05:58:52;;;;;;;35.65;29.58;;;18.70;99.90;;;;;;4159221;28;20116;-76
2021/06/04 06:00:56;;;;;;;34.95;26.83;;;18.80;99.90;;;;;;4149491;28;20052;-76
2021/06/04 06:02:58;;;;;;;37.88;30.52;;;19.00;99.90;;;;;;4159999;28;20033;-76
2021/06/04 06:04:58;;;;;;;35.70;28.15;;;19.20;99.90;;;;;;4161886;28;20026;-76
2021/06/04 06:06:59;;;;;;;37.72;29.15;;;19.30;99.90;;;;;;4160967;28;20029;-76
2021/06/04 06:09:00;;;;;;;39.78;29.92;;;19.30;99.90;;;;;;4161637;28;20022;-77
2021/06/04 06:11:02;;;;;;;36.38;29.35;;;19.30;99.90;;;;;;4160632;28;20052;-76
2021/06/04 06:13:03;;;;;;;35.87;28.97;;;19.20;99.90;;;;;;4159865;28;20065;-76
2021/06/04 06:15:06;;;;;;;43.33;29.90;;;19.30;99.90;;;;;;4160612;28;20029;-76
2021/06/04 06:17:06;;;;;;;41.05;30.13;;;19.40;99.90;;;;;;4161783;28;20030;-76
2021/06/04 06:19:09;;;;;;;39.97;29.13;;;19.30;99.90;;;;;;4156747;28;20065;-76
2021/06/04 06:21:10;;;;;;;39.33;29.80;;;19.40;99.90;;;;;;4160499;28;20150;-76
2021/06/04 06:23:13;;;;;;;44.58;31.35;;;19.40;99.90;;;;;;4159039;28;20052;-76
2021/06/04 06:25:17;;;;;;;40.55;28.95;;;19.40;99.90;;;;;;4161152;28;20107;-76
2021/06/04 06:27:18;;;;;;;34.17;27.30;;;19.40;99.90;;;;;;4160408;28;20017;-76
2021/06/04 06:29:19;;;;;;;33.40;26.33;;;19.40;99.90;;;;;;4161623;28;20064;-76
2021/06/04 06:31:25;;;;;;;34.65;27.25;;;19.40;99.90;;;;;;4159420;28;20025;-76
2021/06/04 06:33:25;;;;;;;35.38;26.75;;;19.50;99.90;;;;;;4161111;28;20033;-76
2021/06/04 06:35:37;;;;;;;36.20;28.20;;;19.50;99.90;;;;;;4162339;28;20033;-76
2021/06/04 06:37:38;;;;;;;34.10;24.83;;;19.70;99.90;;;;;;4162849;28;20029;-76
2021/06/04 06:39:39;;;;;;;29.58;25.45;;;19.80;99.90;;;;;;4160899;28;20097;-75
2021/06/04 06:41:42;;;;;;;32.33;26.30;;;19.90;99.90;;;;;;4161212;28;20770;-76
2021/06/04 06:43:48;;;;;;;;;;;20.00;99.90;;;;;;4176032;28;20029;-76
2021/06/04 06:45:50;;;;;;;32.95;24.92;;;20.00;99.90;;;;;;4160765;28;20012;-76
2021/06/04 06:47:51;;;;;;;29.27;26.13;;;20.10;99.90;;;;;;4159452;28;20473;-76
2021/06/04 06:49:52;;;;;;;32.08;25.80;;;20.20;99.90;;;;;;4156625;28;20030;-76
2021/06/04 06:51:53;;;;;;;31.45;26.08;;;20.20;99.90;;;;;;4161400;28;20433;-76
2021/06/04 06:53:56;;;;;;;31.85;24.95;;;20.20;99.90;;;;;;4160960;28;20037;-76
2021/06/04 06:55:57;;;;;;;;;;;20.20;99.90;;;;;;4160040;28;20489;-76
2021/06/04 06:57:59;;;;;;;30.10;24.60;;;20.30;99.90;;;;;;4159550;28;19972;-76
2021/06/04 07:00:00;;;;;;;29.92;24.10;;;20.50;99.90;;;;;;4161924;28;20416;-76
2021/06/04 07:02:06;;;;;;;29.20;23.05;;;20.50;99.90;;;;;;4158046;28;20105;-76
2021/06/04 07:04:07;;;;;;;31.10;23.92;;;20.60;99.90;;;;;;4161811;28;20041;-76
2021/06/04 07:06:35;;;;;;;30.75;24.48;;;20.70;99.90;;;;;;4161962;28;20532;-76
2021/06/04 07:08:36;;;;;;;31.92;25.33;;;20.80;99.90;;;;;;4159280;28;20040;-75
2021/06/04 07:10:37;;;;;;;32.10;26.50;;;20.80;99.90;;;;;;4160226;28;20376;-76
2021/06/04 07:12:38;;;;;;;30.35;26.35;;;20.90;99.90;;;;;;4161213;28;20472;-76
2021/06/04 07:14:39;;;;;;;32.22;23.92;;;20.90;99.90;;;;;;4158270;28;20057;-76
2021/06/04 07:16:40;;;;;;;28.63;23.45;;;21.00;99.90;;;;;;4168597;28;20024;-76
2021/06/04 07:18:41;;;;;;;28.33;21.90;;;21.10;99.90;;;;;;4154812;28;20026;-76
2021/06/04 07:20:42;;;;;;;25.50;21.85;;;21.20;99.90;;;;;;4160475;28;20393;-76
2021/06/04 07:22:43;;;;;;;23.00;19.58;;;21.30;99.90;;;;;;4161227;28;20036;-76
2021/06/04 07:24:44;;;;;;;23.05;20.52;;;21.50;99.90;;;;;;4152649;28;20026;-76
2021/06/04 07:26:46;;;;;;;29.35;23.27;;;21.70;99.90;;;;;;4151305;28;20034;-76
2021/06/04 07:28:48;;;;;;;25.10;21.05;;;21.80;99.90;;;;;;4160456;28;20022;-77
2021/06/04 07:30:51;;;;;;;27.88;22.02;;;21.80;99.90;;;;;;4172370;28;20039;-77
2021/06/04 07:32:52;;;;;;;27.05;23.08;;;21.80;99.90;;;;;;4149250;28;20030;-77
2021/06/04 07:34:53;;;;;;;27.25;21.88;;;21.90;99.90;;;;;;4154941;28;20038;-76
2021/06/04 07:36:56;;;;;;;24.35;20.73;;;22.00;99.90;;;;;;4160711;28;20030;-76
2021/06/04 07:38:58;;;;;;;26.90;21.77;;;22.30;99.90;;;;;;4161363;28;20045;-77
2021/06/04 07:40:59;;;;;;;24.75;21.15;;;22.50;99.90;;;;;;4150169;28;20036;-77
2021/06/04 07:43:03;;;;;;;28.52;22.52;;;22.60;99.90;;;;;;4150836;28;20116;-76
2021/06/04 07:45:09;;;;;;;28.55;23.95;;;22.70;99.90;;;;;;4157138;28;20034;-76
2021/06/04 07:47:10;;;;;;;27.77;23.50;;;22.70;99.90;;;;;;4153360;28;20065;-77
2021/06/04 07:49:12;;;;;;;24.83;21.88;;;22.80;99.90;;;;;;4161077;28;20029;-77
2021/06/04 07:51:17;;;;;;;27.43;21.73;;;23.00;99.90;;;;;;4162572;28;20147;-77
2021/06/04 07:53:22;;;;;;;26.60;20.70;;;23.00;99.90;;;;;;4155938;28;20488;-76
2021/06/04 07:55:24;;;;;;;24.60;21.23;;;23.20;99.90;;;;;;4150072;28;20381;-77
2021/06/04 07:57:26;;;;;;;23.92;21.35;;;23.40;99.90;;;;;;4159666;28;20116;-77
2021/06/04 07:59:27;;;;;;;23.40;18.65;;;23.40;99.90;;;;;;4160168;28;20037;-77
2021/06/04 08:01:29;;;;;;;24.63;20.23;;;23.50;99.90;;;;;;4152469;28;20022;-77
2021/06/04 08:03:31;;;;;;;19.90;17.85;;;23.60;99.90;;;;;;4155346;28;20107;-77
2021/06/04 08:05:33;;;;;;;26.33;22.30;;;23.70;99.90;;;;;;4156927;28;20087;-77
2021/06/04 08:07:34;;;;;;;23.70;21.08;;;23.70;99.90;;;;;;4163376;28;20029;-77
2021/06/04 08:09:35;;;;;;;24.88;20.77;;;23.90;99.90;;;;;;4163735;28;20027;-77
2021/06/04 08:11:40;;;;;;;21.33;19.02;;;24.00;99.90;;;;;;4163315;28;20045;-77
2021/06/04 08:13:40;;;;;;;21.08;17.48;;;24.10;99.90;;;;;;4174763;28;20033;-77
2021/06/04 08:16:00;;;;;;;22.77;19.52;;;24.20;99.90;;;;;;4163636;28;20033;-77
2021/06/04 08:18:01;;;;;;;23.60;18.90;;;24.40;99.90;;;;;;4152566;28;20028;-77
2021/06/04 08:20:06;;;;;;;20.58;18.50;;;24.50;99.90;;;;;;4149302;28;20025;-77
2021/06/04 08:22:10;;;;;;;21.42;18.83;;;24.60;99.90;;;;;;4164492;28;20030;-77
2021/06/04 08:24:14;;;;;;;21.10;18.05;;;24.70;99.90;;;;;;4164750;28;20107;-77
2021/06/04 08:26:18;;;;;;;20.02;17.92;;;24.70;99.90;;;;;;4163662;28;20037;-77
2021/06/04 08:28:19;;;;;;;18.52;16.60;;;24.70;99.90;;;;;;4163570;28;20496;-77
2021/06/04 08:30:20;;;;;;;19.02;17.13;;;24.80;99.90;;;;;;4164937;28;20083;-77
2021/06/04 08:32:21;;;;;;;18.45;16.42;;;24.90;99.90;;;;;;4164747;28;20064;-77
2021/06/04 08:34:22;;;;;;;17.48;15.68;;;24.90;99.90;;;;;;4163878;28;20565;-77
2021/06/04 08:36:33;;;;;;;20.88;15.32;;;25.00;99.90;;;;;;4164657;28;20026;-77
2021/06/04 08:38:37;;;;;;;18.92;14.82;;;25.10;99.90;;;;;;4164882;28;20034;-77
2021/06/04 08:40:39;;;;;;;22.08;16.40;;;25.30;99.90;;;;;;4164573;28;20384;-77
2021/06/04 08:42:50;;;;;;;15.50;13.70;;;25.40;99.90;;;;;;4164790;28;20136;-77
2021/06/04 08:45:32;;;;;;;20.42;14.75;;;25.50;99.90;;;;;;4164206;28;20041;-77
2021/06/04 08:47:34;;;;;;;16.95;14.52;;;25.50;99.90;;;;;;4179599;28;20040;-77
2021/06/04 08:49:47;;;;;;;16.15;14.20;;;25.50;99.90;;;;;;4164686;28;20407;-77
2021/06/04 08:52:05;;;;;;;14.65;13.15;;;25.30;99.90;;;;;;4164579;28;20496;-77
2021/06/04 08:54:18;;;;;;;19.33;14.88;;;25.40;99.90;;;;;;4149439;28;20092;-77
2021/06/04 08:56:25;;;;;;;17.73;13.82;;;25.60;99.90;;;;;;4164516;28;20535;-76
2021/06/04 08:58:45;;;;;;;18.70;13.70;;;25.70;99.90;;;;;;4164195;28;20889;-76
2021/06/04 09:00:57;;;;;;;18.27;14.50;;;25.80;99.90;;;;;;4161107;28;20465;-77
2021/06/04 09:03:04;;;;;;;15.60;14.15;;;25.60;99.90;;;;;;4163806;28;20041;-77
2021/06/04 09:05:12;;;;;;;22.45;17.58;;;25.80;99.90;;;;;;4162403;28;20035;-76
2021/06/04 09:07:27;;;;;;;18.92;15.05;;;26.00;99.90;;;;;;4161764;28;20038;-77
2021/06/04 09:09:53;;;;;;;17.88;16.20;;;26.10;99.90;;;;;;4151893;28;20025;-76
2021/06/04 09:11:57;;;;;;;19.10;16.60;;;26.20;99.90;;;;;;4159634;28;20041;-76
2021/06/04 09:13:59;;;;;;;17.73;15.80;;;26.50;99.90;;;;;;4156423;28;20054;-76
2021/06/04 09:16:06;;;;;;;19.45;17.33;;;26.70;99.90;;;;;;4161871;28;20041;-76
2021/06/04 09:18:19;;;;;;;22.60;20.10;;;26.80;99.90;;;;;;4161893;28;20116;-76
2021/06/04 09:20:55;;;;;;;19.70;17.67;;;26.60;99.90;;;;;;4162395;28;20697;-76
2021/06/04 09:23:02;;;;;;;19.27;17.27;;;26.50;99.90;;;;;;4127094;28;20048;-76
2021/06/04 09:25:05;;;;;;;18.77;16.90;;;26.20;99.90;;;;;;4161860;28;20065;-76
2021/06/04 09:27:22;;;;;;;;;;;26.30;99.90;;;;;;4177461;28;20647;-76
2021/06/04 09:29:26;;;;;;;19.98;17.00;;;26.40;99.90;;;;;;4159576;28;19932;-76
2021/06/04 09:31:36;;;;;;;21.27;18.08;;;26.20;99.90;;;;;;4172180;28;20060;-76
2021/06/04 09:33:47;;;;;;;21.17;18.17;;;26.20;99.90;;;;;;4160569;28;20065;-76
2021/06/04 09:36:10;;;;;;;23.38;17.30;;;26.40;99.90;;;;;;4160049;28;20045;-76
2021/06/04 09:38:16;;;;;;;20.52;18.30;;;26.60;99.90;;;;;;4159952;28;20049;-76
2021/06/04 09:40:30;;;;;;;22.35;17.98;;;26.90;99.90;;;;;;4160943;28;20172;-76
2021/06/04 09:42:33;;;;;;;20.52;17.35;;;27.30;99.90;;;;;;4161422;28;20029;-76
2021/06/04 09:44:34;;;;;;;19.77;17.52;;;27.30;99.90;;;;;;4163733;28;20033;-76
2021/06/04 09:46:42;;;;;;;19.73;14.98;;;27.20;99.90;;;;;;4163650;28;20512;-76
2021/06/04 09:48:55;;;;;;;21.77;17.85;;;27.30;99.90;;;;;;4161215;28;20029;-76
2021/06/04 09:51:04;;;;;;;20.92;18.00;;;27.40;99.90;;;;;;4163327;28;20057;-77
2021/06/04 09:53:07;;;;;;;22.05;19.73;;;27.40;99.90;;;;;;4160942;28;20037;-76
2021/06/04 09:55:19;;;;;;;28.58;21.38;;;27.40;99.90;;;;;;4163053;28;20032;-77
2021/06/04 09:57:20;;;;;;;19.63;17.65;;;27.90;99.90;;;;;;4177646;28;20428;-77
2021/06/04 09:59:22;;;;;;;21.42;19.08;;;28.20;99.90;;;;;;4178182;28;20031;-77
2021/06/04 10:01:26;;;;;;;20.98;16.35;;;28.70;99.90;;;;;;4161441;28;20057;-77
2021/06/04 10:03:56;;;;;;;18.75;16.75;;;29.20;99.90;;;;;;4163289;28;20376;-78
2021/06/04 10:06:13;;;;;;;20.55;18.13;;;29.90;99.90;;;;;;4151317;28;20029;-78
2021/06/04 10:08:27;;;;;;;20.85;18.80;;;30.00;99.90;;;;;;4169303;28;20029;-78
2021/06/04 10:10:32;;;;;;;22.10;19.88;;;29.90;99.90;;;;;;4161310;28;20025;-78
2021/06/04 10:12:35;;;;;;;21.35;19.08;;;29.70;99.90;;;;;;4155174;28;20698;-77
2021/06/04 10:15:18;;;;;;;;;;;29.70;99.90;;;;;;4163060;28;20104;-77
2021/06/04 10:19:30;;;;;;;22.42;19.70;;;30.60;99.90;;;;;;4161748;28;20435;-76
2021/06/04 10:21:31;;;;;;;22.17;19.80;;;31.00;99.90;;;;;;4162913;28;20036;-79
2021/06/04 10:23:44;;;;;;;21.13;19.02;;;31.20;99.90;;;;;;4152385;28;20469;-77
2021/06/04 10:25:46;;;;;;;;;;;31.60;99.90;;;;;;4174819;28;20025;-77
2021/06/04 10:27:56;;;;;;;18.88;17.00;;;31.70;99.90;;;;;;4155997;28;19909;-77
2021/06/04 10:30:17;;;;;;;21.45;17.85;;;31.30;99.90;;;;;;4160986;28;20041;-77
2021/06/04 10:32:18;;;;;;;19.10;17.00;;;30.30;99.90;;;;;;4156115;28;20037;-77
2021/06/04 10:34:46;;;;;;;19.52;17.60;;;29.80;99.90;;;;;;4160467;28;20405;-77
2021/06/04 10:36:54;;;;;;;17.63;15.80;;;29.60;99.90;;;;;;4158012;28;20454;-77
2021/06/04 10:38:59;;;;;;;18.45;16.50;;;29.70;99.90;;;;;;4161002;28;20037;-78
2021/06/04 10:41:09;;;;;;;21.48;18.25;;;29.70;99.90;;;;;;4158550;28;20446;-78
2021/06/04 10:43:44;;;;;;;16.00;14.48;;;29.60;99.90;;;;;;4157524;28;20083;-78